Time;durP1;ratioP1;P1;durP2;ratioP2;P2;SDS_P1;SDS_P2;PMS_P1;PMS_P2;Temp;Humidity;BMP_temperature;BMP_pressure;BME280_temperature;BME280_humidity;BME280_pressure;Samples;Min_cycle;Max_cycle;Signal;HPM_P1;HPM_P2
2024/01/06 00:00:02;;;;;;;29.07;21.37;;;;;;;5.62;100.00;100155.66;5286611;28;20032;-70
2024/01/06 00:02:34;;;;;;;24.87;20.87;;;;;;;5.60;100.00;100154.78;5286880;28;20085;-70
2024/01/06 00:05:05;;;;;;;25.27;20.47;;;;;;;5.57;100.00;100158.25;5286605;28;20032;-71
2024/01/06 00:07:37;;;;;;;21.03;18.83;;;;;;;5.55;100.00;100166.88;5286671;28;20032;-71
2024/01/06 00:10:08;;;;;;;21.30;18.93;;;;;;;5.48;100.00;100174.63;5286494;28;20074;-71
2024/01/06 00:12:40;;;;;;;20.03;16.17;;;;;;;5.44;100.00;100178.09;5286689;28;20067;-71
2024/01/06 00:15:11;;;;;;;20.10;17.00;;;;;;;5.44;100.00;100188.44;5286825;28;20468;-71
2024/01/06 00:17:42;;;;;;;18.13;16.23;;;;;;;5.44;100.00;100187.56;5286013;28;20119;-71
2024/01/06 00:20:14;;;;;;;19.23;15.70;;;;;;;5.43;100.00;100191.88;5286285;28;20353;-71
2024/01/06 00:22:45;;;;;;;20.23;17.83;;;;;;;5.40;100.00;100199.63;5286433;28;20029;-71
2024/01/06 00:25:17;;;;;;;20.10;17.27;;;;;;;5.39;100.00;100202.22;5286050;28;20043;-71
2024/01/06 00:27:48;;;;;;;20.57;16.73;;;;;;;5.38;100.00;100201.38;5285757;28;20060;-71
2024/01/06 00:30:20;;;;;;;21.90;19.53;;;;;;;5.38;100.00;100203.09;5286082;28;20033;-71
2024/01/06 00:32:51;;;;;;;20.70;17.83;;;;;;;5.37;100.00;100211.72;5285990;28;20475;-71
2024/01/06 00:35:22;;;;;;;22.90;18.77;;;;;;;5.37;100.00;100199.63;5285937;28;20074;-71
2024/01/06 00:37:55;;;;;;;22.83;20.47;;;;;;;5.25;100.00;100204.84;5285896;28;20032;-71
2024/01/06 00:40:26;;;;;;;;;;;;;;;5.28;100.00;100207.38;5284915;28;20112;-71
2024/01/06 00:42:58;;;;;;;23.17;19.48;;;;;;;5.13;100.00;100218.59;5285754;28;19924;-71
2024/01/06 00:45:30;;;;;;;23.57;20.97;;;;;;;5.10;100.00;100216.88;5286301;28;20036;-71
2024/01/06 00:48:02;;;;;;;22.67;20.10;;;;;;;5.10;100.00;100218.59;5285096;28;20052;-71
2024/01/06 00:50:33;;;;;;;27.00;21.20;;;;;;;5.06;100.00;100217.72;5285678;28;20376;-71
2024/01/06 00:53:05;;;;;;;24.27;20.10;;;;;;;5.02;100.00;100216.00;5284271;28;20047;-71
2024/01/06 00:55:36;;;;;;;25.73;22.03;;;;;;;5.04;100.00;100214.28;5285212;28;20036;-70
2024/01/06 00:58:08;;;;;;;27.17;21.70;;;;;;;4.97;100.00;100207.38;5285284;28;20090;-71
2024/01/06 01:00:40;;;;;;;25.40;20.35;;;;;;;4.94;100.00;100220.28;5286134;28;20507;-71
2024/01/06 01:03:11;;;;;;;25.33;19.93;;;;;;;4.92;100.00;100219.44;5284144;28;20055;-71
2024/01/06 01:05:42;;;;;;;24.70;20.33;;;;;;;4.90;100.00;100216.00;5285110;28;20048;-70
2024/01/06 01:08:14;;;;;;;24.27;20.37;;;;;;;4.82;100.00;100228.91;5285242;28;20035;-70
2024/01/06 01:10:45;;;;;;;28.30;21.40;;;;;;;4.75;100.00;100228.03;5285258;28;20067;-70
2024/01/06 01:13:16;;;;;;;25.87;21.23;;;;;;;4.71;100.00;100228.00;5284930;28;20579;-71
2024/01/06 01:15:48;;;;;;;25.43;20.23;;;;;;;4.65;100.00;100226.25;5283909;28;20376;-70
2024/01/06 01:18:19;;;;;;;25.60;20.37;;;;;;;4.57;100.00;100235.72;5285119;28;20097;-70
2024/01/06 01:20:51;;;;;;;28.37;20.03;;;;;;;4.47;100.00;100232.25;5285116;28;20032;-71
2024/01/06 01:23:22;;;;;;;25.70;20.77;;;;;;;4.42;100.00;100236.53;5284941;28;20108;-71
2024/01/06 01:25:54;;;;;;;24.90;20.90;;;;;;;4.37;100.00;100241.69;5285266;28;20029;-71
2024/01/06 01:28:25;;;;;;;27.33;21.60;;;;;;;4.35;100.00;100238.22;5284884;28;20052;-71
2024/01/06 01:30:57;;;;;;;25.30;20.47;;;;;;;4.33;100.00;100244.22;5285151;28;20378;-70
2024/01/06 01:33:28;;;;;;;27.20;21.33;;;;;;;4.29;100.00;100245.94;5284816;28;20494;-71
2024/01/06 01:35:59;;;;;;;34.03;22.17;;;;;;;4.29;100.00;100250.25;5284510;28;20043;-71
2024/01/06 01:38:31;;;;;;;26.40;20.70;;;;;;;4.32;100.00;100253.69;5284816;28;20032;-71
2024/01/06 01:41:03;;;;;;;27.23;21.23;;;;;;;4.37;100.00;100257.16;5285003;28;20060;-71
2024/01/06 01:43:34;;;;;;;28.10;22.83;;;;;;;4.42;100.00;100258.91;5285202;28;20037;-70
2024/01/06 01:46:05;;;;;;;27.73;22.00;;;;;;;4.44;100.00;100267.50;5284585;28;20029;-70
2024/01/06 01:48:37;;;;;;;25.90;21.10;;;;;;;4.47;100.00;100265.78;5284479;28;20057;-71
2024/01/06 01:51:09;;;;;;;26.47;20.50;;;;;;;4.49;100.00;100270.97;5284703;28;20032;-71
2024/01/06 01:53:41;;;;;;;22.95;19.98;;;;;;;4.51;100.00;100277.03;5284401;28;20056;-71
2024/01/06 01:56:13;;;;;;;24.40;19.65;;;;;;;4.53;100.00;100276.16;5284392;28;20028;-70
2024/01/06 01:58:44;;;;;;;23.87;18.90;;;;;;;4.54;100.00;100283.03;5284046;28;20043;-71
2024/01/06 02:01:17;;;;;;;22.27;18.63;;;;;;;4.56;100.00;100286.47;5284608;28;20052;-71
2024/01/06 02:03:48;;;;;;;22.85;18.15;;;;;;;4.62;100.00;100282.19;5284885;28;20032;-71
2024/01/06 02:06:19;;;;;;;21.97;19.10;;;;;;;4.56;100.00;100281.31;5284155;28;20037;-70
2024/01/06 02:08:51;;;;;;;20.13;17.33;;;;;;;4.56;100.00;100283.06;5284496;28;20131;-71
2024/01/06 02:11:22;;;;;;;21.40;18.23;;;;;;;4.61;100.00;100289.09;5284050;28;20109;-71
2024/01/06 02:13:53;;;;;;;21.90;18.37;;;;;;;4.53;100.00;100283.03;5283991;28;20035;-70
2024/01/06 02:16:25;;;;;;;19.67;16.63;;;;;;;4.48;100.00;100295.06;5284037;28;20090;-71
2024/01/06 02:18:57;;;;;;;16.53;14.83;;;;;;;4.45;100.00;100298.50;5283998;28;20451;-71
2024/01/06 02:21:31;;;;;;;;;;;;;;;4.47;100.00;100312.25;5284784;28;20032;-70
2024/01/06 02:24:02;;;;;;;;;;;;;;;4.42;100.00;100310.53;5284793;28;19931;-70
2024/01/06 02:26:34;;;;;;;17.67;14.40;;;;;;;4.32;100.00;100317.34;5283846;28;19916;-70
2024/01/06 02:29:05;;;;;;;15.50;12.87;;;;;;;4.35;100.00;100323.38;5284166;28;20055;-71
2024/01/06 02:31:36;;;;;;;15.07;13.40;;;;;;;4.32;100.00;100318.22;5283923;28;20064;-71
2024/01/06 02:34:08;;;;;;;14.27;12.60;;;;;;;4.27;100.00;100325.06;5283830;28;20035;-71
2024/01/06 02:36:39;;;;;;;15.73;13.30;;;;;;;4.28;100.00;100336.25;5283540;28;20090;-71
2024/01/06 02:39:11;;;;;;;14.10;12.37;;;;;;;4.24;100.00;100337.09;5284189;28;20378;-70
2024/01/06 02:41:42;;;;;;;14.30;12.80;;;;;;;4.26;100.00;100335.38;5283463;28;20063;-70
2024/01/06 02:44:14;;;;;;;14.50;13.00;;;;;;;4.25;100.00;100346.53;5283357;28;20090;-70
2024/01/06 02:46:45;;;;;;;13.03;11.60;;;;;;;4.14;100.00;100344.78;5283789;28;20415;-71
2024/01/06 02:49:16;;;;;;;12.20;10.60;;;;;;;4.15;100.00;100350.78;5282954;28;20052;-71
2024/01/06 02:51:48;;;;;;;13.03;11.63;;;;;;;4.14;100.00;100352.50;5283259;28;20032;-71
2024/01/06 02:54:19;;;;;;;12.43;11.10;;;;;;;4.11;100.00;100356.78;5283289;28;20036;-71
2024/01/06 02:56:50;;;;;;;12.20;10.97;;;;;;;4.11;100.00;100362.81;5283255;28;20158;-71
2024/01/06 02:59:22;;;;;;;11.37;10.20;;;;;;;4.13;100.00;100368.81;5283678;28;20066;-71
2024/01/06 03:01:53;;;;;;;12.30;11.00;;;;;;;4.16;100.00;100368.84;5283497;28;20040;-72
2024/01/06 03:04:24;;;;;;;13.10;11.10;;;;;;;4.11;100.00;100377.44;5283422;28;20087;-71
2024/01/06 03:06:56;;;;;;;12.67;11.47;;;;;;;4.14;100.00;100382.63;5283092;28;20480;-71
2024/01/06 03:09:27;;;;;;;12.70;11.40;;;;;;;4.14;100.00;100392.94;5282957;28;20070;-71
2024/01/06 03:11:58;;;;;;;13.27;11.40;;;;;;;4.13;100.00;100391.19;5281682;28;20313;-71
2024/01/06 03:14:30;;;;;;;13.77;11.00;;;;;;;4.07;100.00;100388.56;5283504;28;20043;-71
2024/01/06 03:17:02;;;;;;;13.87;12.10;;;;;;;4.07;100.00;100406.63;5282127;28;20050;-72
2024/01/06 03:19:33;;;;;;;13.45;11.85;;;;;;;4.05;100.00;100406.59;5282726;28;20471;-71
2024/01/06 03:22:05;;;;;;;12.83;11.53;;;;;;;4.06;100.00;100408.34;5282443;28;20111;-72
2024/01/06 03:24:36;;;;;;;13.27;11.87;;;;;;;4.00;100.00;100409.16;5282344;28;20413;-71
2024/01/06 03:27:08;;;;;;;13.23;11.83;;;;;;;4.03;100.00;100408.31;5282770;28;20032;-71
2024/01/06 03:29:40;;;;;;;13.40;11.57;;;;;;;4.05;100.00;100410.91;5283006;28;20028;-71
2024/01/06 03:32:11;;;;;;;15.97;12.13;;;;;;;3.95;100.00;100415.13;5282742;28;20302;-71
2024/01/06 03:34:43;;;;;;;13.43;12.03;;;;;;;3.91;100.00;100419.41;5282888;28;20032;-72
2024/01/06 03:37:14;;;;;;;11.47;10.23;;;;;;;3.88;100.00;100418.50;5282690;28;20036;-71
2024/01/06 03:39:45;;;;;;;12.30;10.17;;;;;;;3.89;100.00;100422.81;5282877;28;20082;-71
2024/01/06 03:42:17;;;;;;;9.20;8.27;;;;;;;3.78;100.00;100428.75;5282728;28;20047;-72
2024/01/06 03:44:48;;;;;;;9.90;8.90;;;;;;;3.84;100.00;100431.34;5282950;28;20056;-72
2024/01/06 03:47:19;;;;;;;10.43;9.33;;;;;;;3.85;100.00;100432.25;5282820;28;20036;-71
2024/01/06 03:49:51;;;;;;;8.60;7.70;;;;;;;3.76;100.00;100440.72;5283511;28;20060;-71
2024/01/06 03:52:22;;;;;;;8.57;7.77;;;;;;;3.72;100.00;100446.72;5282579;28;20116;-71
2024/01/06 03:54:54;;;;;;;8.87;7.77;;;;;;;3.70;100.00;100448.41;5282783;28;20086;-71
2024/01/06 03:57:25;;;;;;;10.10;7.87;;;;;;;3.70;100.00;100439.81;5281346;28;20028;-71
2024/01/06 03:59:57;;;;;;;8.77;7.87;;;;;;;3.66;100.00;100449.25;5282600;28;20078;-70
2024/01/06 04:02:28;;;;;;;9.80;8.80;;;;;;;3.65;100.00;100444.94;5282531;28;20039;-71
2024/01/06 04:05:00;;;;;;;9.83;8.57;;;;;;;3.64;100.00;100440.63;5282523;28;20086;-71
2024/01/06 04:07:31;;;;;;;10.53;8.47;;;;;;;3.57;100.00;100447.41;5282440;28;20029;-70
2024/01/06 04:10:02;;;;;;;11.13;10.03;;;;;;;3.60;100.00;100447.44;5282157;28;20528;-71
2024/01/06 04:12:34;;;;;;;10.13;9.10;;;;;;;3.65;100.00;100455.22;5282180;28;20036;-71
2024/01/06 04:15:05;;;;;;;11.03;9.93;;;;;;;3.56;100.00;100453.44;5281746;28;20032;-70
2024/01/06 04:17:37;;;;;;;10.40;9.40;;;;;;;3.60;100.00;100446.59;5282394;28;20453;-71
2024/01/06 04:20:12;;;;;;;12.37;11.07;;;;;;;3.56;100.00;100457.72;5282689;28;20033;-71
2024/01/06 04:22:44;;;;;;;11.82;9.73;;;;;;;3.57;100.00;100462.03;5282209;28;20024;-71
2024/01/06 04:25:16;;;;;;;12.30;11.10;;;;;;;3.55;100.00;100458.56;5282234;28;20032;-71
2024/01/06 04:27:48;;;;;;;12.00;10.80;;;;;;;3.56;100.00;100466.31;5282491;28;20029;-70
2024/01/06 04:30:20;;;;;;;11.45;10.20;;;;;;;3.52;100.00;100464.56;5285138;28;20460;-70
2024/01/06 04:32:52;;;;;;;14.30;11.30;;;;;;;3.51;100.00;100470.56;5285716;28;20040;-71
2024/01/06 04:35:23;;;;;;;12.10;10.90;;;;;;;3.51;100.00;100473.16;5286513;28;20029;-72
2024/01/06 04:37:55;;;;;;;12.97;11.67;;;;;;;3.48;100.00;100480.84;5285365;28;20040;-71
2024/01/06 04:40:27;;;;;;;12.50;10.70;;;;;;;3.45;100.00;100479.09;5285954;28;20652;-71
2024/01/06 04:42:58;;;;;;;13.05;11.35;;;;;;;3.52;100.00;100476.59;5286113;28;20472;-71
2024/01/06 04:45:30;;;;;;;11.40;9.90;;;;;;;3.46;100.00;100487.66;5285839;28;20036;-71
2024/01/06 04:48:01;;;;;;;11.57;10.33;;;;;;;3.41;100.00;100485.06;5285481;28;20097;-70
2024/01/06 04:50:33;;;;;;;12.27;9.93;;;;;;;3.40;100.00;100496.22;5286051;28;20089;-71
2024/01/06 04:53:04;;;;;;;11.90;10.37;;;;;;;3.37;100.00;100498.75;5285700;28;20035;-72
2024/01/06 04:55:35;;;;;;;9.87;8.77;;;;;;;3.43;100.00;100503.09;5284058;28;20601;-71
2024/01/06 04:58:07;;;;;;;11.90;9.70;;;;;;;3.41;100.00;100502.22;5285867;28;20379;-72
2024/01/06 05:00:38;;;;;;;10.03;8.93;;;;;;;3.38;100.00;100507.34;5285694;28;20583;-71
2024/01/06 05:03:09;;;;;;;12.77;8.57;;;;;;;3.37;100.00;100511.63;5285266;28;20075;-71
2024/01/06 05:05:42;;;;;;;7.27;6.40;;;;;;;3.34;100.00;100518.47;5285511;28;20025;-72
2024/01/06 05:08:13;;;;;;;8.05;6.75;;;;;;;3.35;100.00;100523.63;5285291;28;20348;-71
2024/01/06 05:10:46;;;;;;;8.03;7.23;;;;;;;3.37;100.00;100519.34;5285452;28;20028;-71
2024/01/06 05:13:17;;;;;;;7.45;6.68;;;;;;;3.26;100.00;100524.38;5285286;28;20032;-71
2024/01/06 05:15:49;;;;;;;7.27;6.17;;;;;;;3.26;100.00;100526.94;5285338;28;20042;-71
2024/01/06 05:18:20;;;;;;;6.53;5.53;;;;;;;3.23;100.00;100526.91;5284074;28;20036;-71
2024/01/06 05:20:52;;;;;;;7.57;5.37;;;;;;;3.23;100.00;100526.91;5285258;28;20029;-71
2024/01/06 05:23:23;;;;;;;5.50;4.90;;;;;;;3.20;100.00;100534.59;5285450;28;20028;-71
2024/01/06 05:25:55;;;;;;;7.63;5.60;;;;;;;3.19;100.00;100527.72;5285293;28;20037;-71
2024/01/06 05:28:26;;;;;;;6.10;5.03;;;;;;;3.24;100.00;100535.53;5284749;28;20081;-71
2024/01/06 05:30:57;;;;;;;6.60;4.83;;;;;;;3.21;100.00;100540.63;5284985;28;20028;-70
2024/01/06 05:33:29;;;;;;;5.40;4.70;;;;;;;3.18;100.00;100536.28;5285186;28;20033;-70
2024/01/06 05:36:00;;;;;;;6.00;5.33;;;;;;;3.21;100.00;100545.78;5284606;28;20060;-70
2024/01/06 05:38:31;;;;;;;5.60;4.80;;;;;;;3.19;100.00;100543.19;5285290;28;20055;-70
2024/01/06 05:41:03;;;;;;;5.93;4.83;;;;;;;3.21;100.00;100548.34;5284657;28;20077;-70
2024/01/06 05:43:34;;;;;;;4.87;4.07;;;;;;;3.20;100.00;100550.03;5284973;28;20036;-70
2024/01/06 05:46:07;;;;;;;5.20;4.70;;;;;;;3.22;100.00;100557.78;5283303;28;20115;-70
2024/01/06 05:48:40;;;;;;;5.50;4.60;;;;;;;3.26;100.00;100557.84;5284792;28;20518;-70
2024/01/06 05:51:11;;;;;;;5.43;4.82;;;;;;;3.21;100.00;100566.38;5284539;28;20044;-70
2024/01/06 05:53:43;;;;;;;5.07;4.40;;;;;;;3.22;100.00;100558.69;5284471;28;20055;-71
2024/01/06 05:56:27;;;;;;;5.50;4.47;;;;;;;3.25;100.00;100571.59;5284457;28;20448;-70
2024/01/06 05:58:58;;;;;;;7.38;5.38;;;;;;;3.24;100.00;100576.72;5284475;28;20060;-70
2024/01/06 06:01:29;;;;;;;7.30;5.73;;;;;;;3.20;100.00;100578.38;5284367;28;20561;-70
2024/01/06 06:04:01;;;;;;;7.83;6.07;;;;;;;3.22;100.00;100575.81;5284910;28;20035;-70
2024/01/06 06:06:32;;;;;;;7.13;6.00;;;;;;;3.23;100.00;100575.84;5284795;28;20028;-71
2024/01/06 06:09:07;;;;;;;7.33;5.87;;;;;;;3.21;100.00;100582.69;5284460;28;20134;-70
2024/01/06 06:11:38;;;;;;;7.82;6.03;;;;;;;3.20;100.00;100585.25;5284608;28;20028;-70
2024/01/06 06:14:09;;;;;;;6.17;5.37;;;;;;;3.21;100.00;100590.41;5283906;28;20041;-70
2024/01/06 06:16:41;;;;;;;5.90;5.30;;;;;;;3.15;100.00;100595.47;5284122;28;20455;-70
2024/01/06 06:19:12;;;;;;;5.50;4.87;;;;;;;3.18;100.00;100595.53;5283958;28;20536;-70
2024/01/06 06:21:44;;;;;;;6.97;5.80;;;;;;;3.14;100.00;100604.06;5283973;28;20139;-71
2024/01/06 06:24:15;;;;;;;6.30;5.57;;;;;;;3.12;100.00;100605.75;5284021;28;20029;-71
2024/01/06 06:26:46;;;;;;;6.90;5.87;;;;;;;3.12;100.00;100613.47;5284367;28;20029;-70
2024/01/06 06:29:18;;;;;;;6.67;5.97;;;;;;;3.11;100.00;100619.47;5282641;28;20052;-70
2024/01/06 06:31:49;;;;;;;6.50;5.80;;;;;;;3.05;100.00;100621.97;5283985;28;20185;-70
2024/01/06 06:34:21;;;;;;;8.33;7.43;;;;;;;3.07;100.00;100617.69;5283800;28;20036;-70
2024/01/06 06:36:52;;;;;;;11.20;8.33;;;;;;;3.04;100.00;100626.25;5283607;28;20456;-70
2024/01/06 06:39:23;;;;;;;9.00;7.47;;;;;;;3.08;100.00;100632.31;5283657;28;20096;-70
2024/01/06 06:41:55;;;;;;;10.30;8.23;;;;;;;3.04;100.00;100625.38;5283830;28;20052;-70
2024/01/06 06:44:26;;;;;;;8.67;7.87;;;;;;;3.04;100.00;100633.09;5283253;28;20032;-71
2024/01/06 06:46:57;;;;;;;8.43;7.47;;;;;;;2.97;100.00;100642.44;5283504;28;20060;-70
2024/01/06 06:49:29;;;;;;;9.30;7.33;;;;;;;2.97;100.00;100647.59;5283757;28;20526;-70
2024/01/06 06:52:00;;;;;;;10.43;7.33;;;;;;;2.95;100.00;100654.41;5282573;28;20075;-71
2024/01/06 06:54:31;;;;;;;8.47;7.30;;;;;;;2.95;100.00;100646.69;5281987;28;20033;-71
2024/01/06 06:57:03;;;;;;;9.60;7.70;;;;;;;2.97;100.00;100657.88;5283223;28;20114;-70
2024/01/06 06:59:35;;;;;;;8.93;7.87;;;;;;;2.94;100.00;100668.13;5283673;28;20467;-70
2024/01/06 07:02:06;;;;;;;9.37;7.30;;;;;;;2.94;100.00;100669.84;5283148;28;20047;-70
2024/01/06 07:04:37;;;;;;;6.37;5.70;;;;;;;2.96;100.00;100683.59;5282991;28;20028;-71
2024/01/06 07:07:09;;;;;;;8.07;7.00;;;;;;;2.97;100.00;100677.63;5281957;28;20033;-71
2024/01/06 07:09:41;;;;;;;6.90;6.20;;;;;;;2.98;100.00;100687.06;5282780;28;20035;-71
2024/01/06 07:12:12;;;;;;;8.90;7.90;;;;;;;3.00;100.00;100695.69;5283298;28;20364;-71
2024/01/06 07:14:43;;;;;;;8.83;7.77;;;;;;;2.97;100.00;100695.66;5282794;28;20274;-71
2024/01/06 07:17:15;;;;;;;11.47;9.43;;;;;;;2.94;100.00;100700.75;5282717;28;20396;-71
2024/01/06 07:19:46;;;;;;;10.07;8.87;;;;;;;2.87;100.00;100698.06;5283074;28;20438;-71
2024/01/06 07:22:18;;;;;;;10.60;8.97;;;;;;;2.89;100.00;100714.41;5283464;28;20032;-71
2024/01/06 07:24:49;;;;;;;11.23;10.03;;;;;;;2.86;100.00;100706.63;5282838;28;20056;-70
2024/01/06 07:27:21;;;;;;;16.30;9.83;;;;;;;2.86;100.00;100708.31;5281579;28;20048;-70
2024/01/06 07:29:52;;;;;;;10.57;9.47;;;;;;;2.87;100.00;100710.94;5282916;28;20058;-70
2024/01/06 07:32:24;;;;;;;13.20;9.80;;;;;;;2.87;100.00;100708.34;5282855;28;20460;-70
2024/01/06 07:34:55;;;;;;;11.63;9.60;;;;;;;2.86;100.00;100716.91;5282687;28;20029;-71
2024/01/06 07:37:27;;;;;;;12.10;9.53;;;;;;;2.86;100.00;100714.34;5282670;28;20044;-71
2024/01/06 07:39:58;;;;;;;13.50;10.47;;;;;;;2.83;100.00;100723.72;5283059;28;20037;-71
2024/01/06 07:42:30;;;;;;;15.30;9.87;;;;;;;2.79;100.00;100722.81;5282883;28;20040;-71
2024/01/06 07:45:02;;;;;;;12.33;10.43;;;;;;;2.79;100.00;100725.38;5283441;28;20059;-71
2024/01/06 07:47:33;;;;;;;11.32;10.20;;;;;;;2.80;100.00;100727.13;5282694;28;20428;-71
2024/01/06 07:50:05;;;;;;;11.67;10.37;;;;;;;2.86;100.00;100732.34;5283018;28;20040;-71
2024/01/06 07:52:37;;;;;;;14.00;11.15;;;;;;;2.84;100.00;100731.47;5282577;28;20119;-71
2024/01/06 07:55:08;;;;;;;12.63;10.27;;;;;;;2.81;100.00;100730.56;5282603;28;20482;-71
2024/01/06 07:57:39;;;;;;;11.23;10.03;;;;;;;2.85;100.00;100740.06;5282625;28;20472;-72
2024/01/06 08:00:14;;;;;;;13.30;10.50;;;;;;;2.84;100.00;100741.78;5282680;28;20036;-70
2024/01/06 08:02:46;;;;;;;11.77;10.45;;;;;;;2.83;100.00;100747.75;5282959;28;20028;-71
2024/01/06 08:05:18;;;;;;;13.35;9.65;;;;;;;2.86;100.00;100749.53;5286905;28;20112;-71
2024/01/06 08:07:50;;;;;;;12.97;10.17;;;;;;;2.85;100.00;100751.25;5286333;28;20115;-71
2024/01/06 08:10:22;;;;;;;12.20;9.23;;;;;;;2.88;100.00;100759.03;5286627;28;20029;-72
2024/01/06 08:12:54;;;;;;;15.03;9.77;;;;;;;2.83;100.00;100760.63;5286887;28;20039;-73
2024/01/06 08:15:25;;;;;;;12.30;10.57;;;;;;;2.84;100.00;100774.38;5286568;28;20032;-72
2024/01/06 08:17:56;;;;;;;13.97;10.23;;;;;;;2.84;100.00;100777.81;5286280;28;20344;-71
2024/01/06 08:20:28;;;;;;;13.83;10.37;;;;;;;2.87;100.00;100780.44;5286477;28;20024;-72
2024/01/06 08:22:59;;;;;;;13.50;10.63;;;;;;;2.95;100.00;100780.59;5286299;28;20036;-71
2024/01/06 08:25:30;;;;;;;13.50;10.30;;;;;;;2.94;100.00;100783.13;5285669;28;20036;-71
2024/01/06 08:28:02;;;;;;;15.03;10.57;;;;;;;2.96;100.00;100786.59;5286220;28;20469;-71
2024/01/06 08:30:33;;;;;;;12.43;10.07;;;;;;;2.95;100.00;100783.16;5286659;28;20025;-71
2024/01/06 08:33:05;;;;;;;10.90;9.67;;;;;;;2.94;100.00;100791.72;5285991;28;20040;-71
2024/01/06 08:35:40;;;;;;;21.33;11.70;;;;;;;2.84;100.00;100795.84;5285971;28;20029;-71
2024/01/06 08:38:11;;;;;;;11.88;10.30;;;;;;;2.79;100.00;100799.19;5285907;28;20433;-71
2024/01/06 08:40:45;;;;;;;14.17;11.17;;;;;;;2.77;100.00;100801.72;5286046;28;20069;-71
2024/01/06 08:43:17;;;;;;;14.70;11.18;;;;;;;2.78;100.00;100810.28;5286169;28;20551;-71
2024/01/06 08:45:50;;;;;;;14.35;11.55;;;;;;;2.80;100.00;100816.34;5285626;28;20043;-71
2024/01/06 08:48:23;;;;;;;14.35;11.23;;;;;;;2.76;100.00;100818.00;5285251;28;20109;-70
2024/01/06 08:50:54;;;;;;;13.57;11.63;;;;;;;2.77;100.00;100819.75;5285760;28;20052;-71
2024/01/06 08:53:25;;;;;;;17.07;12.20;;;;;;;2.73;100.00;100823.94;5285574;28;20502;-71
2024/01/06 08:55:57;;;;;;;16.83;12.90;;;;;;;2.77;100.00;100826.56;5285809;28;20078;-71
2024/01/06 08:58:28;;;;;;;14.43;11.93;;;;;;;2.76;100.00;100830.88;5285559;28;20032;-71
2024/01/06 09:00:59;;;;;;;17.77;12.27;;;;;;;2.75;100.00;100834.25;5285386;28;20037;-71
2024/01/06 09:03:31;;;;;;;13.33;11.23;;;;;;;2.79;100.00;100838.66;5284191;28;20032;-71
2024/01/06 09:06:04;;;;;;;14.33;11.70;;;;;;;2.74;100.00;100845.41;5285171;28;20045;-71
2024/01/06 09:08:35;;;;;;;;;;;;;;;2.81;100.00;100849.84;5285717;28;20033;-71
2024/01/06 09:11:06;;;;;;;13.02;10.45;;;;;;;2.74;100.00;100848.00;5285617;28;20112;-71
2024/01/06 09:13:39;;;;;;;13.77;10.40;;;;;;;2.76;100.00;100854.03;5285523;28;20048;-71
2024/01/06 09:16:10;;;;;;;11.60;9.95;;;;;;;2.77;100.00;100850.63;5284783;28;20348;-71
2024/01/06 09:18:41;;;;;;;12.70;10.43;;;;;;;2.76;100.00;100851.47;5285550;28;20025;-71
2024/01/06 09:21:13;;;;;;;12.17;10.87;;;;;;;2.73;100.00;100859.13;5285164;28;20102;-71
2024/01/06 09:23:44;;;;;;;12.43;10.37;;;;;;;2.72;100.00;100872.81;5285498;28;20029;-72
2024/01/06 09:26:16;;;;;;;11.83;10.40;;;;;;;2.82;100.00;100877.34;5285109;28;20040;-72
2024/01/06 09:28:47;;;;;;;12.00;10.77;;;;;;;2.86;100.00;100873.97;5283761;28;20062;-71
2024/01/06 09:31:19;;;;;;;13.90;11.80;;;;;;;2.80;100.00;100880.69;5285323;28;20414;-71
2024/01/06 09:33:50;;;;;;;14.27;11.27;;;;;;;2.80;100.00;100879.00;5285019;28;20111;-71
2024/01/06 09:36:22;;;;;;;11.90;10.67;;;;;;;2.83;100.00;100888.47;5285242;28;20032;-70
2024/01/06 09:38:53;;;;;;;11.50;10.30;;;;;;;2.70;100.00;100895.94;5285421;28;20036;-71
2024/01/06 09:41:25;;;;;;;11.00;9.87;;;;;;;2.76;100.00;100897.78;5284746;28;20111;-71
2024/01/06 09:43:56;;;;;;;10.90;9.53;;;;;;;2.81;100.00;100897.88;5285111;28;20024;-72
2024/01/06 09:46:31;;;;;;;10.40;9.17;;;;;;;2.74;100.00;100907.19;5284454;28;20074;-71
2024/01/06 09:49:03;;;;;;;11.90;8.80;;;;;;;2.79;100.00;100912.44;5284372;28;20450;-71
2024/01/06 09:51:37;;;;;;;11.70;9.73;;;;;;;2.84;100.00;100915.97;5284734;28;20037;-71
2024/01/06 09:54:11;;;;;;;10.75;9.50;;;;;;;2.88;100.00;100922.91;5284684;28;20020;-71
2024/01/06 09:56:45;;;;;;;11.48;9.82;;;;;;;2.90;100.00;100924.69;5284396;28;20136;-71
2024/01/06 09:59:16;;;;;;;10.27;8.80;;;;;;;2.94;100.00;100927.34;5284721;28;20523;-71
2024/01/06 10:01:49;;;;;;;10.43;8.47;;;;;;;2.90;100.00;100932.41;5284428;28;20126;-71
2024/01/06 10:04:20;;;;;;;12.63;9.52;;;;;;;2.88;100.00;100928.06;5284259;28;20028;-71
2024/01/06 10:06:52;;;;;;;12.33;8.87;;;;;;;2.95;100.00;100931.63;5284828;28;20039;-71
2024/01/06 10:09:27;;;;;;;10.33;7.87;;;;;;;2.96;100.00;100943.69;5284321;28;20056;-71
2024/01/06 10:11:59;;;;;;;10.35;8.55;;;;;;;2.91;100.00;100939.31;5284052;28;20032;-73
2024/01/06 10:14:30;;;;;;;10.83;8.87;;;;;;;3.02;100.00;100948.97;5284075;28;20086;-72
2024/01/06 10:17:02;;;;;;;11.93;8.47;;;;;;;2.99;100.00;100948.91;5283809;28;20052;-71
2024/01/06 10:19:35;;;;;;;10.43;8.80;;;;;;;3.06;100.00;100958.50;5284259;28;20111;-71
2024/01/06 10:22:06;;;;;;;11.35;8.90;;;;;;;3.13;100.00;100960.34;5284367;28;20414;-71
2024/01/06 10:24:38;;;;;;;10.93;8.40;;;;;;;3.05;100.00;100957.63;5283803;28;20029;-72
2024/01/06 10:27:09;;;;;;;10.67;8.67;;;;;;;2.98;100.00;100965.16;5282476;28;20104;-71
2024/01/06 10:29:40;;;;;;;10.60;8.67;;;;;;;3.00;100.00;100959.22;5283672;28;20047;-71
2024/01/06 10:32:12;;;;;;;9.77;8.27;;;;;;;3.01;100.00;100960.09;5283721;28;20054;-70
2024/01/06 10:34:45;;;;;;;13.23;8.70;;;;;;;3.03;100.00;100958.44;5284118;28;20033;-72
2024/01/06 10:37:17;;;;;;;11.95;8.40;;;;;;;3.03;100.00;100964.44;5283394;28;20080;-71
2024/01/06 10:40:04;;;;;;;10.63;8.27;;;;;;;3.00;100.00;100969.53;5282349;28;20116;-71
2024/01/06 10:42:39;;;;;;;11.27;9.05;;;;;;;3.00;100.00;100966.09;5283642;28;20028;-71
2024/01/06 10:45:13;;;;;;;10.38;8.75;;;;;;;3.01;100.00;100975.53;5283284;28;20067;-72
2024/01/06 10:47:45;;;;;;;10.65;8.45;;;;;;;2.96;100.00;100980.59;5283579;28;20028;-71
2024/01/06 10:50:17;;;;;;;13.00;8.80;;;;;;;2.97;100.00;100978.91;5282717;28;20102;-71
2024/01/06 10:52:51;;;;;;;11.05;8.48;;;;;;;3.06;100.00;100976.53;5283491;28;20033;-72
2024/01/06 10:55:25;;;;;;;10.38;8.68;;;;;;;3.11;100.00;100982.66;5283036;28;20032;-72
2024/01/06 10:57:58;;;;;;;10.88;8.23;;;;;;;3.09;100.00;100979.16;5283025;28;20048;-71
2024/01/06 11:00:29;;;;;;;9.90;8.25;;;;;;;3.12;100.00;100974.06;5283058;28;20440;-71
2024/01/06 11:03:02;;;;;;;12.90;8.63;;;;;;;3.05;100.00;100985.09;5283142;28;20033;-71
2024/01/06 11:05:34;;;;;;;10.07;8.20;;;;;;;3.12;100.00;100988.66;5283253;28;20025;-71
2024/01/06 11:08:08;;;;;;;11.65;9.30;;;;;;;3.08;100.00;100991.16;5283020;28;20119;-71
2024/01/06 11:10:40;;;;;;;11.02;8.52;;;;;;;2.99;100.00;100995.25;5283060;28;20040;-71
2024/01/06 11:13:17;;;;;;;9.75;8.38;;;;;;;3.08;100.00;100998.03;5282904;28;20029;-71
2024/01/06 11:15:51;;;;;;;9.98;7.18;;;;;;;3.13;100.00;100995.56;5283503;28;20028;-71
2024/01/06 11:18:42;;;;;;;9.05;7.28;;;;;;;3.18;100.00;100988.78;5282546;28;20056;-70
2024/01/06 11:21:26;;;;;;;10.00;8.02;;;;;;;3.20;100.00;100993.13;5283339;28;20051;-71
2024/01/06 11:24:37;;;;;;;10.15;8.10;;;;;;;3.24;100.00;100988.91;5283083;28;20456;-71
2024/01/06 11:27:09;;;;;;;9.35;7.75;;;;;;;3.20;100.00;101003.41;5239230;28;20029;-71
2024/01/06 11:29:43;;;;;;;7.60;6.68;;;;;;;3.22;100.00;100996.63;5272996;28;20294;-71
2024/01/06 11:32:25;;;;;;;7.90;7.05;;;;;;;3.32;100.00;100995.09;5282573;28;20452;-71
2024/01/06 11:35:08;;;;;;;9.43;6.35;;;;;;;3.33;100.00;100998.53;5282762;28;20024;-71
2024/01/06 11:37:39;;;;;;;8.07;6.05;;;;;;;3.29;100.00;100998.47;5281586;28;20032;-71